Time;durP1;ratioP1;P1;durP2;ratioP2;P2;SDS_P1;SDS_P2;PMS_P1;PMS_P2;Temp;Humidity;BMP_temperature;BMP_pressure;BME280_temperature;BME280_humidity;BME280_pressure;Samples;Min_cycle;Max_cycle;Signal;HPM_P1;HPM_P2
2022/11/18 00:00:49;;;;;;;0.69;0.47;;;;;;;2.99;94.44;98703.35;446699;119;922829;-82
2022/11/18 00:01:52;;;;;;;0.42;0.42;;;;;;;2.99;94.46;98710.59;453260;114;923048;-83
2022/11/18 00:02:55;;;;;;;0.27;0.27;;;;;;;3.00;94.51;98714.95;462460;114;922560;-81
2022/11/18 00:03:59;;;;;;;0.31;0.29;;;;;;;2.99;94.35;98714.13;462557;114;922765;-82
2022/11/18 00:05:02;;;;;;;0.40;0.21;;;;;;;2.99;94.58;98726.75;462421;114;922930;-83
2022/11/18 00:06:06;;;;;;;0.50;0.40;;;;;;;3.00;94.59;98717.64;462493;114;922468;-83
2022/11/18 00:07:10;;;;;;;0.32;0.30;;;;;;;3.00;94.68;98718.47;462311;114;922923;-85
2022/11/18 00:08:13;;;;;;;0.40;0.40;;;;;;;3.02;94.71;98715.58;462519;114;922659;-81
2022/11/18 00:09:16;;;;;;;0.33;0.33;;;;;;;3.02;94.69;98716.41;462490;114;922831;-83
2022/11/18 00:10:19;;;;;;;0.51;0.40;;;;;;;3.04;94.62;98716.17;462517;114;922994;-82
2022/11/18 00:14:19;;;;;;;0.21;0.21;;;;;;;3.03;94.38;98725.31;462295;114;922594;-80
2022/11/18 00:15:23;;;;;;;0.33;0.30;;;;;;;3.03;94.47;98739.60;462321;114;922867;-84
2022/11/18 00:16:28;;;;;;;0.31;0.31;;;;;;;3.03;94.65;98742.30;459746;114;922550;-82
2022/11/18 00:17:31;;;;;;;0.51;0.51;;;;;;;3.02;94.67;98737.94;454409;116;922926;-79
2022/11/18 00:18:36;;;;;;;0.48;0.42;;;;;;;3.01;94.70;98748.91;454394;116;923020;-80
2022/11/18 00:19:39;;;;;;;0.31;0.31;;;;;;;3.01;94.61;98751.61;454367;116;922491;-82
2022/11/18 00:20:42;;;;;;;0.38;0.38;;;;;;;3.01;94.56;98752.44;454398;116;922573;-82
2022/11/18 00:21:45;;;;;;;0.34;0.34;;;;;;;3.02;94.42;98751.41;454421;116;930171;-84
2022/11/18 00:22:48;;;;;;;0.30;0.30;;;;;;;3.02;94.40;98750.58;454427;116;922691;-85
2022/11/18 00:23:51;;;;;;;0.24;0.24;;;;;;;3.01;94.23;98754.30;454469;116;922847;-82
2022/11/18 00:24:54;;;;;;;0.26;0.26;;;;;;;2.99;94.32;98746.42;454455;116;922791;-80
2022/11/18 00:26:03;;;;;;;0.33;0.33;;;;;;;2.99;94.26;98748.28;454417;116;922906;-84
2022/11/18 00:27:06;;;;;;;0.30;0.30;;;;;;;2.97;94.19;98764.67;453824;116;922553;-79
2022/11/18 00:28:09;;;;;;;0.32;0.30;;;;;;;2.93;94.08;98763.41;454390;116;923355;-83
2022/11/18 00:29:13;;;;;;;0.30;0.30;;;;;;;2.92;93.99;98759.09;454424;116;922623;-83
2022/11/18 00:30:16;;;;;;;0.47;0.30;;;;;;;2.91;94.20;98747.50;454409;116;922734;-85
2022/11/18 00:31:19;;;;;;;0.35;0.29;;;;;;;2.96;94.42;98741.48;454340;116;922909;-82
2022/11/18 00:32:22;;;;;;;0.39;0.30;;;;;;;3.00;94.36;98736.48;454415;116;922499;-76
2022/11/18 00:33:25;;;;;;;0.56;0.30;;;;;;;3.03;94.32;98749.55;447573;116;922599;-71
2022/11/18 00:34:28;;;;;;;0.42;0.42;;;;;;;3.04;94.20;98746.62;446712;119;922834;-73
2022/11/18 00:35:32;;;;;;;0.30;0.30;;;;;;;3.04;94.20;98741.23;446749;119;922643;-74
2022/11/18 00:36:34;;;;;;;0.30;0.30;;;;;;;3.06;94.24;98749.11;446729;119;922601;-74
2022/11/18 00:37:37;;;;;;;0.47;0.47;;;;;;;3.09;94.38;98748.70;446677;119;922557;-76
2022/11/18 00:38:41;;;;;;;0.40;0.40;;;;;;;3.11;94.32;98760.06;446710;119;923516;-76
2022/11/18 00:39:44;;;;;;;0.51;0.31;;;;;;;3.11;94.28;98763.59;438108;121;922906;-75
2022/11/18 00:40:47;;;;;;;0.30;0.30;;;;;;;3.13;94.23;98776.84;438105;121;922873;-76
2022/11/18 00:43:11;;;;;;;0.46;0.39;;;;;;;3.15;94.13;98774.75;441054;119;923848;-77
2022/11/18 00:44:14;;;;;;;0.30;0.30;;;;;;;3.15;94.18;98777.45;446758;119;922458;-77
2022/11/18 00:45:18;;;;;;;1.16;0.44;;;;;;;3.14;94.03;98776.61;446724;119;922684;-76
2022/11/18 00:46:21;;;;;;;0.36;0.36;;;;;;;3.12;94.10;98777.88;446652;119;922866;-77
2022/11/18 00:47:24;;;;;;;0.56;0.48;;;;;;;3.13;94.16;98785.76;446707;119;922548;-76
2022/11/18 00:48:27;;;;;;;0.54;0.54;;;;;;;3.16;94.20;98779.94;446695;119;922535;-76
2022/11/18 00:49:30;;;;;;;0.62;0.60;;;;;;;3.21;94.35;98790.06;446666;119;923027;-76
2022/11/18 00:50:33;;;;;;;0.71;0.68;;;;;;;3.26;94.28;98788.39;446653;119;922751;-73
2022/11/18 00:51:36;;;;;;;0.71;0.68;;;;;;;3.31;94.43;98790.45;446728;119;922764;-77
2022/11/18 00:52:40;;;;;;;0.79;0.79;;;;;;;3.33;94.26;98785.69;446658;119;922558;-75
2022/11/18 00:53:43;;;;;;;0.69;0.68;;;;;;;3.34;94.16;98800.81;446662;119;922526;-77
2022/11/18 00:54:46;;;;;;;0.92;0.88;;;;;;;3.36;94.23;98802.24;446633;119;923033;-77
2022/11/18 00:55:49;;;;;;;0.93;0.93;;;;;;;3.38;94.16;98818.20;446695;119;922581;-76
2022/11/18 00:56:53;;;;;;;1.21;1.18;;;;;;;3.39;94.17;98822.55;446648;119;922442;-76
2022/11/18 00:57:56;;;;;;;1.19;0.89;;;;;;;3.39;94.10;98816.34;446686;119;922571;-77
2022/11/18 00:58:59;;;;;;;1.05;1.00;;;;;;;3.39;94.02;98816.34;446688;119;922535;-77
2022/11/18 01:00:02;;;;;;;1.00;1.00;;;;;;;3.36;93.86;98813.02;446683;119;922385;-76
2022/11/18 01:01:06;;;;;;;1.16;1.10;;;;;;;3.34;93.84;98815.12;446608;119;922924;-76
2022/11/18 01:02:09;;;;;;;1.36;1.26;;;;;;;3.31;93.70;98817.38;457656;114;923009;-78
2022/11/18 01:03:12;;;;;;;1.48;1.33;;;;;;;3.28;93.78;98818.66;462464;114;922561;-77
2022/11/18 01:04:15;;;;;;;0.91;0.90;;;;;;;3.27;93.74;98816.99;462517;114;922525;-76
2022/11/18 01:05:18;;;;;;;1.20;1.10;;;;;;;3.29;93.78;98819.48;462371;114;922513;-78
2022/11/18 01:06:22;;;;;;;1.10;1.10;;;;;;;3.29;93.84;98819.48;462433;114;930146;-77
2022/11/18 01:07:25;;;;;;;1.12;1.06;;;;;;;3.27;93.73;98827.77;462377;114;922612;-76
2022/11/18 01:08:28;;;;;;;1.01;1.00;;;;;;;3.22;93.46;98819.49;462437;114;922507;-77
2022/11/18 01:09:31;;;;;;;1.36;1.26;;;;;;;3.16;93.39;98820.33;462483;114;922419;-76
2022/11/18 01:10:35;;;;;;;0.97;0.94;;;;;;;3.12;93.45;98824.48;462531;114;922432;-76
2022/11/18 01:13:18;;;;;;;1.13;1.03;;;;;;;3.08;93.55;98828.64;461198;113;922590;-76
2022/11/18 01:14:24;;;;;;;1.03;0.96;;;;;;;3.06;93.78;98829.88;458852;115;922869;-76
2022/11/18 01:15:27;;;;;;;0.98;0.98;;;;;;;3.04;93.80;98832.77;458906;115;922991;-76
2022/11/18 01:16:30;;;;;;;0.91;0.91;;;;;;;3.03;93.79;98830.31;456796;115;922517;-79
2022/11/18 01:17:33;;;;;;;1.17;0.96;;;;;;;3.04;93.80;98837.32;450578;117;922471;-77
2022/11/18 01:18:36;;;;;;;0.94;0.94;;;;;;;3.05;93.95;98841.67;450573;117;922380;-77
2022/11/18 01:19:39;;;;;;;1.37;0.90;;;;;;;3.07;93.81;98842.31;450590;117;922559;-76
2022/11/18 01:20:43;;;;;;;0.96;0.96;;;;;;;3.10;93.88;98853.48;450577;117;922450;-76
2022/11/18 01:21:46;;;;;;;0.82;0.82;;;;;;;3.11;93.80;98854.31;450567;117;922550;-76
2022/11/18 01:22:49;;;;;;;1.02;1.02;;;;;;;3.12;93.72;98855.97;450563;115;922520;-77
2022/11/18 01:23:52;;;;;;;0.90;0.90;;;;;;;3.13;93.72;98853.08;450602;117;922913;-76
2022/11/18 01:24:55;;;;;;;0.93;0.93;;;;;;;3.15;93.71;98859.06;450635;117;922578;-77
2022/11/18 01:26:02;;;;;;;1.00;1.00;;;;;;;3.12;93.50;98866.74;450615;117;922473;-76
2022/11/18 01:27:05;;;;;;;1.10;1.10;;;;;;;3.10;93.44;98868.80;450408;117;922534;-76
2022/11/18 01:28:09;;;;;;;0.85;0.85;;;;;;;3.09;93.39;98867.97;450627;117;922527;-76
2022/11/18 01:29:12;;;;;;;0.99;0.99;;;;;;;3.08;93.48;98865.52;450547;117;922991;-77
2022/11/18 01:30:18;;;;;;;1.07;1.07;;;;;;;3.09;93.56;98867.17;448385;117;922502;-77
2022/11/18 01:31:21;;;;;;;1.14;1.13;;;;;;;3.10;93.54;98869.63;446763;118;922599;-76
2022/11/18 01:32:24;;;;;;;1.09;1.09;;;;;;;3.12;93.50;98878.34;448241;117;922926;-78
2022/11/18 01:33:28;;;;;;;0.98;0.98;;;;;;;3.15;93.52;98871.69;443442;117;922545;-75
2022/11/18 01:34:31;;;;;;;1.00;1.00;;;;;;;3.14;93.34;98868.17;443015;120;922897;-76
2022/11/18 01:35:36;;;;;;;1.16;1.16;;;;;;;3.12;93.24;98862.19;443019;120;922529;-77
2022/11/18 01:36:40;;;;;;;1.08;1.08;;;;;;;3.09;93.19;98864.48;443580;116;921998;-78
2022/11/18 01:37:43;;;;;;;1.21;1.21;;;;;;;3.05;93.14;98864.05;444298;112;922142;-79
2022/11/18 01:38:46;;;;;;;1.17;1.17;;;;;;;3.03;93.16;98863.45;444331;112;922164;-77
2022/11/18 01:39:49;;;;;;;1.35;1.20;;;;;;;3.04;93.20;98864.25;444273;112;922042;-78
2022/11/18 01:40:53;;;;;;;1.39;1.29;;;;;;;3.02;93.12;98872.55;444325;116;921961;-77
2022/11/18 01:41:56;;;;;;;1.52;1.44;;;;;;;3.02;93.10;98859.09;444231;112;922053;-79
2022/11/18 01:42:59;;;;;;;1.43;1.33;;;;;;;3.02;93.07;98866.34;444344;112;922314;-78
2022/11/18 01:44:25;;;;;;;1.29;1.20;;;;;;;3.03;93.18;98878.77;444340;112;922056;-77
2022/11/18 01:45:34;;;;;;;1.54;1.44;;;;;;;3.05;93.06;98876.68;444075;116;922570;-77
2022/11/18 01:46:37;;;;;;;1.47;1.37;;;;;;;3.06;93.01;98891.80;444069;116;922562;-77
2022/11/18 01:47:43;;;;;;;1.44;1.34;;;;;;;3.05;92.97;98900.91;444218;120;922022;-79
2022/11/18 01:48:50;;;;;;;1.31;1.18;;;;;;;3.03;92.93;98905.70;443635;116;922014;-77
2022/11/18 01:49:53;;;;;;;2.11;1.60;;;;;;;3.02;92.93;98904.03;444028;120;922054;-77
2022/11/18 01:50:59;;;;;;;1.17;1.17;;;;;;;3.02;92.91;98921.02;444305;119;922164;-77
2022/11/18 01:52:02;;;;;;;1.51;1.41;;;;;;;3.03;92.91;98924.55;443715;119;922531;-76
2022/11/18 01:53:09;;;;;;;1.47;1.37;;;;;;;3.03;92.78;98924.55;444269;120;922322;-78
2022/11/18 01:54:15;;;;;;;1.67;1.57;;;;;;;3.00;92.64;98922.24;444042;116;922288;-77
2022/11/18 01:55:24;;;;;;;1.53;1.48;;;;;;;2.97;92.59;98918.13;444074;120;922084;-78
2022/11/18 01:56:34;;;;;;;1.56;1.47;;;;;;;2.96;92.71;98921.84;443966;120;922093;-78
2022/11/18 01:57:37;;;;;;;1.75;1.65;;;;;;;2.98;92.91;98925.13;443857;120;922081;-77
2022/11/18 01:58:47;;;;;;;1.46;1.41;;;;;;;3.01;92.89;98934.67;444083;120;922381;-74
2022/11/18 01:59:53;;;;;;;1.56;1.49;;;;;;;3.03;92.92;98938.83;443951;120;922213;-78
2022/11/18 02:00:58;;;;;;;1.76;1.66;;;;;;;3.01;92.71;98951.66;443989;120;921949;-76
2022/11/18 02:02:04;;;;;;;1.48;1.42;;;;;;;2.97;92.43;98960.36;453105;115;922125;-76
2022/11/18 02:03:08;;;;;;;1.76;1.66;;;;;;;2.90;92.52;98963.87;460110;114;922172;-78
2022/11/18 02:04:13;;;;;;;1.76;1.66;;;;;;;2.82;92.31;98963.22;459724;113;922054;-77
2022/11/18 02:05:17;;;;;;;1.75;1.65;;;;;;;2.74;92.06;98960.73;459110;115;922465;-77
2022/11/18 02:06:20;;;;;;;1.69;1.59;;;;;;;2.68;92.13;98962.38;459179;115;922409;-77
2022/11/18 02:07:24;;;;;;;1.61;1.51;;;;;;;2.66;92.33;98983.27;459219;115;922814;-78
2022/11/18 02:08:29;;;;;;;1.61;1.51;;;;;;;2.62;92.72;98965.88;459143;115;922481;-77
2022/11/18 02:09:32;;;;;;;1.73;1.64;;;;;;;2.58;92.56;98974.57;459092;115;922678;-77
2022/11/18 02:10:35;;;;;;;1.74;1.64;;;;;;;2.53;92.14;98977.88;459246;115;922444;-76
2022/11/18 02:11:53;;;;;;;1.49;1.49;;;;;;;2.48;92.15;98978.45;459199;115;922568;-76
2022/11/18 02:12:57;;;;;;;1.86;1.76;;;;;;;2.47;92.18;98976.82;458959;115;922462;-74
2022/11/18 02:14:04;;;;;;;1.69;1.59;;;;;;;2.51;92.34;98993.38;462163;114;922907;-75
2022/11/18 02:15:08;;;;;;;1.61;1.51;;;;;;;2.54;92.35;98992.16;448577;114;922577;-76
2022/11/18 02:16:17;;;;;;;1.81;1.71;;;;;;;2.54;92.39;98992.95;441163;119;922870;-76
2022/11/18 02:17:30;;;;;;;2.03;1.92;;;;;;;2.55;92.36;99000.00;446432;119;922468;-77
2022/11/18 09:45:23;;;;;;;5.64;5.29;;;;;;;1.46;96.12;100064.48;471662;110;945382;-76
2022/11/18 09:46:37;;;;;;;5.88;5.48;;;;;;;1.44;95.74;100064.64;472800;112;922604;-77
2022/11/18 09:47:40;;;;;;;6.29;5.82;;;;;;;1.51;95.27;100064.81;472805;112;922529;-77
2022/11/18 09:50:12;;;;;;;6.88;6.38;;;;;;;1.64;95.09;100070.52;472774;110;930604;-77
2022/11/18 09:51:26;;;;;;;6.34;5.87;;;;;;;1.86;95.13;100060.91;477077;110;947036;-78
2022/11/18 09:52:45;;;;;;;5.69;5.26;;;;;;;1.81;95.00;100074.86;465420;114;922566;-77
2022/11/18 09:53:48;;;;;;;5.57;5.20;;;;;;;1.86;94.70;100074.34;465249;113;922590;-79
2022/11/18 09:54:52;;;;;;;5.28;4.98;;;;;;;1.88;94.52;100065.08;460898;114;922503;-78
2022/11/18 09:55:55;;;;;;;4.96;4.55;;;;;;;1.90;94.25;100071.14;457471;116;922483;-78
2022/11/18 09:56:59;;;;;;;5.01;4.71;;;;;;;1.92;94.11;100079.88;457551;116;922617;-79
2022/11/18 09:58:03;;;;;;;6.04;5.58;;;;;;;1.93;93.86;100081.53;457466;116;923412;-79
2022/11/18 09:59:06;;;;;;;5.65;5.25;;;;;;;1.96;93.77;100081.20;457493;116;922652;-77
2022/11/18 10:00:15;;;;;;;4.99;4.68;;;;;;;2.00;93.82;100082.53;457466;114;922498;-79
2022/11/18 10:01:20;;;;;;;5.91;5.51;;;;;;;2.04;93.71;100089.23;457293;115;930389;-79
2022/11/18 10:02:38;;;;;;;6.11;5.71;;;;;;;2.08;93.63;100095.13;457376;116;922778;-78
2022/11/18 10:03:42;;;;;;;6.50;6.02;;;;;;;2.12;93.45;100095.61;457139;115;922486;-79
2022/11/18 10:04:45;;;;;;;6.64;6.18;;;;;;;2.14;93.21;100094.44;457446;114;922628;-76
2022/11/18 10:05:54;;;;;;;6.36;5.86;;;;;;;2.15;93.23;100096.09;457529;115;922548;-77
2022/11/18 10:06:58;;;;;;;5.39;5.04;;;;;;;2.19;93.15;100091.23;457254;115;922504;-78
2022/11/18 10:08:22;;;;;;;5.84;5.49;;;;;;;2.22;93.17;100102.47;457470;116;922876;-79
2022/11/18 10:09:36;;;;;;;6.95;6.55;;;;;;;2.28;93.11;100106.32;457303;114;922517;-78
2022/11/18 10:10:52;;;;;;;6.11;5.71;;;;;;;2.31;92.98;100111.37;457267;116;922597;-76
2022/11/18 10:12:05;;;;;;;7.26;6.35;;;;;;;2.31;92.94;100112.22;457317;116;922593;-78
2022/11/18 10:13:14;;;;;;;5.93;5.53;;;;;;;2.31;92.55;100119.44;456670;115;923435;-77
2022/11/18 10:14:39;;;;;;;6.49;5.91;;;;;;;2.29;92.37;100111.53;452829;114;923128;-78
2022/11/18 10:15:49;;;;;;;6.16;5.74;;;;;;;2.27;92.39;100121.61;457336;116;922920;-77
2022/11/18 10:17:01;;;;;;;5.54;5.15;;;;;;;2.28;92.22;100111.70;456699;115;922529;-77
2022/11/18 10:18:24;;;;;;;5.54;5.23;;;;;;;2.25;92.03;100122.81;456672;116;922437;-77
2022/11/18 10:19:33;;;;;;;5.97;5.59;;;;;;;2.22;91.94;100128.52;454055;116;923019;-79
2022/11/18 10:20:59;;;;;;;5.73;5.41;;;;;;;2.20;91.86;100125.19;457214;116;922582;-78
2022/11/18 10:22:20;;;;;;;5.90;5.50;;;;;;;2.18;91.83;100128.05;456526;116;922682;-79
2022/11/18 10:23:46;;;;;;;4.93;4.63;;;;;;;2.19;91.71;100139.64;456987;116;922579;-78
2022/11/18 10:24:51;;;;;;;5.08;4.72;;;;;;;2.17;91.83;100141.66;457230;116;922781;-78
2022/11/18 10:25:54;;;;;;;4.59;4.29;;;;;;;2.17;91.71;100142.49;457217;116;922475;-76
2022/11/18 10:26:59;;;;;;;5.28;4.96;;;;;;;2.18;91.82;100154.09;457351;116;922536;-78
2022/11/18 10:28:18;;;;;;;5.06;4.76;;;;;;;2.19;91.62;100145.02;457202;116;930441;-76
2022/11/18 10:29:22;;;;;;;5.60;5.30;;;;;;;2.19;91.59;100156.63;456050;116;930466;-79
2022/11/18 10:30:26;;;;;;;5.02;4.66;;;;;;;2.19;91.57;100151.23;453815;116;923421;-78
2022/11/18 10:31:29;;;;;;;4.92;4.62;;;;;;;2.18;91.46;100152.25;452976;117;922616;-78
2022/11/18 10:32:33;;;;;;;5.22;4.92;;;;;;;2.18;91.49;100148.72;455354;114;922572;-77
2022/11/18 10:33:36;;;;;;;4.91;4.62;;;;;;;2.19;91.55;100145.86;457317;116;922588;-78
2022/11/18 10:34:51;;;;;;;5.44;5.04;;;;;;;2.21;91.41;100148.36;457216;114;930679;-80
2022/11/18 10:36:19;;;;;;;5.60;5.16;;;;;;;2.21;91.34;100148.36;457183;116;922514;-77
2022/11/18 10:37:35;;;;;;;4.77;4.47;;;;;;;2.20;91.32;100161.00;457214;116;922650;-77
2022/11/18 10:38:41;;;;;;;5.12;4.81;;;;;;;2.19;91.08;100155.78;454131;116;922551;-78
2022/11/18 10:39:54;;;;;;;5.52;5.19;;;;;;;2.16;91.09;100161.48;456325;114;922623;-77
2022/11/18 10:41:07;;;;;;;;;;;;;;;2.15;91.06;100165.20;460256;116;922130;-78
2022/11/18 10:42:14;;;;;;;5.11;4.81;;;;;;;2.14;91.10;100166.21;454095;116;922294;-78
2022/11/18 10:43:52;;;;;;;4.52;4.27;;;;;;;2.13;91.13;100167.22;453760;116;922876;-79
2022/11/18 10:44:59;;;;;;;4.66;4.36;;;;;;;2.12;91.32;100169.06;454059;116;922533;-78
2022/11/18 10:46:17;;;;;;;5.21;4.91;;;;;;;2.12;91.22;100168.22;449325;116;922533;-79
2022/11/18 10:47:26;;;;;;;5.36;5.02;;;;;;;2.12;91.24;100171.75;454088;116;922619;-79
2022/11/18 10:48:30;;;;;;;6.23;5.83;;;;;;;2.14;91.36;100174.28;454120;116;922490;-78
2022/11/18 10:49:38;;;;;;;6.30;5.89;;;;;;;2.16;91.39;100161.48;454241;116;922445;-78
2022/11/18 10:50:49;;;;;;;5.77;5.46;;;;;;;2.17;91.32;100179.30;454089;116;922603;-78
2022/11/18 10:52:07;;;;;;;6.23;5.77;;;;;;;2.19;91.21;100179.98;453735;116;922981;-78
2022/11/18 10:53:35;;;;;;;5.83;5.45;;;;;;;2.19;91.16;100175.45;454102;116;922577;-77
2022/11/18 10:54:39;;;;;;;5.04;4.74;;;;;;;2.21;91.10;100175.25;454105;116;923142;-79
2022/11/18 10:55:46;;;;;;;5.26;4.86;;;;;;;2.21;91.00;100176.09;454262;116;922538;-79
2022/11/18 10:56:53;;;;;;;4.88;4.58;;;;;;;2.21;90.99;100177.94;450478;116;922550;-76
2022/11/18 10:58:10;;;;;;;5.11;4.72;;;;;;;2.22;90.87;100171.56;453698;116;922667;-78
2022/11/18 10:59:35;;;;;;;5.12;4.79;;;;;;;2.22;90.79;100168.87;454284;116;922687;-76
2022/11/18 11:00:42;;;;;;;5.08;4.64;;;;;;;2.22;90.81;100174.25;453904;116;922839;-77
2022/11/18 11:01:58;;;;;;;4.82;4.55;;;;;;;2.21;90.66;100176.09;455057;116;922649;-78
2022/11/18 11:03:22;;;;;;;4.98;4.68;;;;;;;2.19;90.52;100188.89;456661;116;922376;-77
2022/11/18 11:04:27;;;;;;;5.48;5.09;;;;;;;2.17;90.58;100196.28;457204;114;923189;-78
2022/11/18 11:05:30;;;;;;;5.38;5.03;;;;;;;2.17;90.43;100204.35;457253;116;922613;-75
2022/11/18 11:06:38;;;;;;;4.71;4.42;;;;;;;2.16;90.50;100209.89;457415;115;922567;-80
2022/11/18 11:07:41;;;;;;;5.76;5.36;;;;;;;2.16;90.37;100209.89;457177;116;922571;-78
2022/11/18 11:09:03;;;;;;;5.71;5.31;;;;;;;2.15;90.42;100221.69;457367;115;922514;-78
2022/11/18 12:29:42;;;;;;;5.35;5.05;;;;;;;1.33;93.14;100373.85;482494;110;946860;-78
2022/11/18 12:30:45;;;;;;;5.89;5.49;;;;;;;1.29;92.82;100380.55;465457;114;922599;-79
2022/11/18 12:31:54;;;;;;;4.17;3.92;;;;;;;1.35;92.71;100379.08;465580;114;922620;-77
2022/11/18 12:32:58;;;;;;;4.58;4.34;;;;;;;1.39;92.48;100383.11;468679;112;929158;-78
2022/11/18 12:34:07;;;;;;;3.50;3.30;;;;;;;1.42;92.23;100388.18;467366;112;923116;-79
2022/11/18 12:35:17;;;;;;;4.33;4.03;;;;;;;1.44;92.09;100388.84;463741;114;922820;-76
2022/11/18 12:36:29;;;;;;;4.54;4.26;;;;;;;1.47;91.98;100399.28;465479;114;922574;-79
2022/11/18 12:37:36;;;;;;;4.68;4.32;;;;;;;1.51;91.90;100395.27;465408;114;922461;-77
2022/11/18 12:38:39;;;;;;;4.78;4.47;;;;;;;1.56;91.77;100398.31;465414;114;922531;-77
2022/11/18 12:39:47;;;;;;;5.04;4.71;;;;;;;1.60;91.66;100405.03;465692;114;922598;-76
2022/11/18 12:40:50;;;;;;;4.98;4.69;;;;;;;1.63;91.52;100404.73;465395;114;922780;-79
2022/11/18 12:43:47;;;;;;;5.16;4.84;;;;;;;1.66;91.17;100409.77;465351;114;922643;-77
2022/11/18 12:44:52;;;;;;;4.31;4.01;;;;;;;1.66;91.00;100410.61;465398;114;922499;-77
2022/11/18 12:45:56;;;;;;;4.30;4.00;;;;;;;1.68;90.98;100413.14;465314;114;922519;-78
2022/11/18 12:47:02;;;;;;;4.86;4.56;;;;;;;1.69;90.95;100414.83;465458;114;922697;-77
2022/11/18 12:48:32;;;;;;;6.77;6.07;;;;;;;1.72;90.98;100414.50;464400;114;930516;-78
2022/11/18 12:49:39;;;;;;;6.84;6.28;;;;;;;1.75;90.86;100421.41;465109;114;922493;-78
2022/11/18 12:50:51;;;;;;;7.08;6.58;;;;;;;1.77;90.69;100419.38;465345;114;930524;-78
2022/11/18 12:51:57;;;;;;;6.02;5.43;;;;;;;1.79;90.76;100434.36;465444;114;922469;-77
2022/11/18 12:53:00;;;;;;;6.57;6.09;;;;;;;1.83;90.80;100429.48;465400;114;922485;-77
2022/11/18 12:54:23;;;;;;;5.39;5.04;;;;;;;1.88;90.80;100437.91;465549;114;923257;-76
2022/11/18 12:55:30;;;;;;;4.91;4.61;;;;;;;1.90;90.58;100435.91;465373;114;922766;-77
2022/11/18 12:56:36;;;;;;;4.78;4.52;;;;;;;1.90;90.26;100436.75;465397;114;922931;-77
2022/11/18 12:57:40;;;;;;;4.74;4.44;;;;;;;1.88;90.18;100436.06;465353;114;922558;-79
2022/11/18 12:58:48;;;;;;;4.44;4.23;;;;;;;1.88;90.14;100444.13;465397;114;922519;-78
2022/11/18 12:59:51;;;;;;;5.59;5.22;;;;;;;1.90;90.18;100441.28;465413;114;922653;-78
2022/11/18 13:01:10;;;;;;;5.19;4.79;;;;;;;1.93;90.22;100441.79;465620;114;922788;-79
2022/11/18 13:02:20;;;;;;;4.87;4.57;;;;;;;1.96;90.22;100440.64;465407;114;922563;-79
2022/11/18 13:03:24;;;;;;;4.74;4.45;;;;;;;1.98;90.16;100447.55;465401;114;922926;-77
2022/11/18 13:04:28;;;;;;;5.22;4.87;;;;;;;2.00;89.99;100445.52;465457;114;922591;-78
2022/11/18 13:05:33;;;;;;;4.69;4.41;;;;;;;2.00;89.90;100445.52;456641;116;922902;-78
2022/11/18 13:06:38;;;;;;;4.54;4.27;;;;;;;2.00;89.79;100456.27;456454;116;922559;-79
2022/11/18 13:09:15;;;;;;;5.37;5.06;;;;;;;2.00;89.68;100448.20;456333;116;930429;-77
2022/11/18 13:10:25;;;;;;;5.03;4.73;;;;;;;2.01;89.62;100449.05;465101;114;922843;-79
2022/11/18 13:11:43;;;;;;;5.14;4.84;;;;;;;2.00;89.58;100458.12;465229;114;922570;-78
2022/11/18 13:12:48;;;;;;;5.04;4.74;;;;;;;2.00;89.48;100460.81;465348;114;922519;-80
2022/11/18 13:17:50;;;;;;;6.05;5.65;;;;;;;1.99;89.54;100467.19;465562;114;922903;-78
2022/11/18 13:17:51;;;;;;;9.26;8.67;;;;;;;2.00;89.42;100469.72;465463;114;922610;-78
2022/11/18 13:18:54;;;;;;;9.94;9.32;;;;;;;2.00;89.40;100475.09;465398;114;922526;-79
2022/11/18 13:19:57;;;;;;;6.79;6.41;;;;;;;2.01;89.56;100476.78;465611;114;922679;-78
2022/11/18 13:23:52;;;;;;;4.95;4.65;;;;;;;2.02;89.23;100491.08;465460;114;922485;-78
2022/11/18 13:24:58;;;;;;;5.08;4.78;;;;;;;2.00;89.27;100493.08;455923;116;922582;-79
2022/11/18 13:26:07;;;;;;;6.03;5.36;;;;;;;1.98;89.30;100487.87;456633;116;922517;-79
2022/11/18 13:27:13;;;;;;;5.78;5.41;;;;;;;2.00;89.30;100496.61;465409;114;923446;-78
2022/11/18 13:28:26;;;;;;;4.91;4.57;;;;;;;2.02;89.43;100486.55;445732;114;922750;-78
2022/11/18 13:29:33;;;;;;;5.37;5.07;;;;;;;2.05;89.50;100494.27;465303;114;922479;-80
2022/11/18 13:30:39;;;;;;;4.97;4.66;;;;;;;2.09;89.48;100492.13;465781;113;922520;-77
2022/11/18 13:32:10;;;;;;;4.49;4.23;;;;;;;2.09;89.31;100492.13;465601;114;922478;-78
2022/11/18 13:33:13;;;;;;;4.94;4.67;;;;;;;2.09;89.25;100497.50;468168;112;923093;-79
2022/11/18 13:34:22;;;;;;;5.44;5.14;;;;;;;2.08;89.12;100493.12;465469;114;922394;-79
2022/11/18 13:35:28;;;;;;;5.65;5.26;;;;;;;2.08;89.21;100496.66;465375;114;922906;-81
2022/11/18 13:36:32;;;;;;;5.47;5.17;;;;;;;2.09;89.10;100503.69;465349;114;922554;-79
2022/11/18 13:37:35;;;;;;;5.78;5.40;;;;;;;2.11;89.08;100500.85;465472;114;922833;-78
2022/11/18 13:38:40;;;;;;;5.88;5.48;;;;;;;2.12;89.03;100505.23;465423;114;930537;-79
2022/11/18 13:39:44;;;;;;;5.00;4.70;;;;;;;2.13;89.05;100495.32;465329;114;923305;-79
2022/11/18 13:41:03;;;;;;;5.04;4.74;;;;;;;2.13;88.96;100501.55;465287;114;922716;-78
2022/11/18 13:42:19;;;;;;;4.81;4.56;;;;;;;2.14;88.82;100497.86;465179;114;930415;-81
2022/11/18 13:43:25;;;;;;;5.54;5.22;;;;;;;2.14;88.79;100492.47;465240;114;922997;-76
2022/11/18 13:44:32;;;;;;;5.21;4.88;;;;;;;2.16;88.92;100497.67;465222;114;922634;-81
2022/11/18 13:45:38;;;;;;;6.50;6.11;;;;;;;2.17;88.82;100496.67;464820;114;922979;-81
2022/11/18 13:46:42;;;;;;;5.94;5.64;;;;;;;2.18;88.87;100495.67;455536;116;922593;-81
2022/11/18 13:47:49;;;;;;;6.45;5.98;;;;;;;2.19;88.85;100494.67;456219;114;923161;-80
2022/11/18 13:48:56;;;;;;;7.50;7.06;;;;;;;2.20;88.88;100496.36;465145;114;930452;-79
2022/11/18 13:50:12;;;;;;;7.58;7.09;;;;;;;2.21;88.75;100493.48;465198;114;922871;-79
2022/11/18 13:51:16;;;;;;;7.16;6.75;;;;;;;2.23;88.74;100493.33;465249;114;922853;-80
2022/11/18 13:52:31;;;;;;;6.79;6.36;;;;;;;2.24;88.74;100498.55;465362;114;922349;-78
2022/11/18 13:53:43;;;;;;;6.30;5.89;;;;;;;2.37;88.74;100492.72;486114;107;933410;-80
2022/11/18 13:54:48;;;;;;;5.72;5.37;;;;;;;2.27;88.85;100500.91;467054;113;922645;-79
2022/11/18 13:55:57;;;;;;;6.35;5.98;;;;;;;2.28;88.78;100494.52;466882;113;922539;-79
2022/11/18 13:57:00;;;;;;;5.79;5.43;;;;;;;2.29;88.76;100496.22;450407;113;922978;-79
2022/11/18 13:58:07;;;;;;;5.66;5.27;;;;;;;2.32;88.72;100500.41;466992;113;923603;-80
2022/11/18 13:59:20;;;;;;;7.19;6.63;;;;;;;2.32;88.59;100500.41;462849;113;922538;-79
2022/11/18 14:00:26;;;;;;;6.31;5.91;;;;;;;2.31;88.43;100499.59;466924;113;922463;-79
2022/11/18 14:01:32;;;;;;;6.42;6.03;;;;;;;2.32;88.56;100497.72;460636;115;922695;-79
2022/11/18 14:02:45;;;;;;;7.67;7.16;;;;;;;2.33;88.56;100502.94;457066;114;922787;-78
2022/11/18 14:03:54;;;;;;;6.98;6.44;;;;;;;2.35;88.47;100505.48;464821;114;922526;-81
2022/11/18 14:04:59;;;;;;;5.94;5.54;;;;;;;2.35;88.49;100500.09;465198;114;923305;-80
2022/11/18 14:06:03;;;;;;;4.73;4.43;;;;;;;2.34;88.30;100501.94;465193;114;922509;-79
2022/11/18 14:07:30;;;;;;;5.75;5.35;;;;;;;2.34;88.35;100506.48;465274;114;922517;-78
2022/11/18 14:08:36;;;;;;;5.82;5.46;;;;;;;2.35;88.37;100510.86;456919;114;922810;-80
2022/11/18 14:09:43;;;;;;;6.03;5.64;;;;;;;2.34;88.35;100514.55;465191;114;922565;-80
2022/11/18 14:10:46;;;;;;;5.96;5.57;;;;;;;2.35;88.23;100517.09;463990;114;922522;-80
2022/11/18 14:12:01;;;;;;;5.48;5.12;;;;;;;2.35;88.22;100516.24;465364;114;922553;-80
2022/11/18 14:13:23;;;;;;;6.46;6.06;;;;;;;2.33;88.07;100519.09;465157;114;922461;-79
2022/11/18 14:14:35;;;;;;;5.90;5.55;;;;;;;2.34;88.10;100519.93;465208;114;922573;-79
2022/11/18 14:15:39;;;;;;;6.40;6.00;;;;;;;2.33;88.03;100523.62;464581;114;922452;-79
2022/11/18 14:16:44;;;;;;;6.27;5.79;;;;;;;2.31;88.06;100522.97;465682;113;922641;-79
2022/11/18 14:17:54;;;;;;;5.49;5.19;;;;;;;2.30;87.97;100518.58;467041;113;922482;-79